Pagrindinis puslapis
METAR-TAF:

METAR-TAF

Oro uostai :

Groton-New London, Konektikutas, Jungtinės Amerikos Valstijos

platuma: 41-19-39N, ilguma: 072-02-58W, Aukštis: 3 m

Dabartinis oras

Ataskaita buvo paskelbta 53 minutes, ne 05:56 UTC
Vėjas 12 kt iš Vakarų
Temperatūra -1°C
Drėgmė 43%
Slėgis 1007 hPa
Matomumas: 16.1 km
Apsiniaukę ne aukštis 6500 ft

METAR: KGON 280556Z AUTO 27012KT 10SM OVC065 M01/M12 A2975 RMK AO2 PK WND 27028/0506 SLP075 T10061122 10022 21006 53013

Laikas: 01:49 (06:49 UTC)

Prognozė

Ataskaita buvo paskelbta 1 valandą ir 10 minutes, ne 05:39 UTC
Prognozė galioja nuo 28 metu 06 UTC su 29 metu 06 UTC
Vėjas 16 kt iš Vakarų su gūsio iki 27 kt
Matomumas: 10 km
Išsisklaidę debesys ne aukštis 5000 ft
Nuo 28 metu 0700 UTC
Vėjas 15 kt iš Vakarų su gūsio iki 25 kt
Matomumas: 10 km
Mažai debesys ne aukštis 5000 ft
Nuo 28 metu 2300 UTC
Vėjas 9 kt iš Vakarų
Matomumas: 10 km
Mažai debesys ne aukštis 25000 ft

TAF: KGON 280539Z 2806/2906 27016G27KT P6SM SCT050 FM280700 26015G25KT P6SM FEW050 FM282300 26009KT P6SM FEW250

Orai ataskaitas ir orų prognozės (METAR, TAF).

turimą stotys yra geltonos ir raudonos taškus žemėlapyje.

Perkelti pele per norėdami pamatyti stoties vardą.

Tada spustelėkite, norėdami matyti oro stebėjimo ir prognozės.

Norėdami pakeisti žemėlapį: spustelėkite ant žalios mygtukų su juodo kryžiaus žemyn,; žalią mygtuką su brūkšneliu, jei norite nutolinti; arba žalių rodyklių gretimoms žemėlapius.


METAR-TAF: